sensor_id;sensor_type;location;lat;lon;timestamp;pressure;altitude;pressure_sealevel;temperature;humidity
60852;BME280;48553;50.766;2.900;2024-01-30T00:00:26;101805.31;;;8.04;100.00
60852;BME280;48553;50.766;2.900;2024-01-30T00:03:27;101809.66;;;8.05;100.00
60852;BME280;48553;50.766;2.900;2024-01-30T00:06:29;101803.38;;;8.05;100.00
60852;BME280;48553;50.766;2.900;2024-01-30T00:09:30;101804.19;;;8.05;100.00
60852;BME280;48553;50.766;2.900;2024-01-30T00:12:30;101793.78;;;8.07;100.00
60852;BME280;48553;50.766;2.900;2024-01-30T00:15:32;101792.97;;;8.07;100.00
60852;BME280;48553;50.766;2.900;2024-01-30T00:18:32;101789.13;;;8.08;100.00
60852;BME280;48553;50.766;2.900;2024-01-30T00:21:33;101790.78;;;8.09;100.00
60852;BME280;48553;50.766;2.900;2024-01-30T00:24:33;101793.50;;;8.09;100.00
60852;BME280;48553;50.766;2.900;2024-01-30T00:27:34;101786.41;;;8.08;100.00
60852;BME280;48553;50.766;2.900;2024-01-30T00:30:34;101793.78;;;8.07;100.00
60852;BME280;48553;50.766;2.900;2024-01-30T00:33:34;101791.94;;;8.03;100.00
60852;BME280;48553;50.766;2.900;2024-01-30T00:36:35;101793.78;;;8.07;100.00
60852;BME280;48553;50.766;2.900;2024-01-30T00:39:35;101796.28;;;8.04;100.00
60852;BME280;48553;50.766;2.900;2024-01-30T00:42:36;101794.06;;;8.06;100.00
60852;BME280;48553;50.766;2.900;2024-01-30T00:45:36;101793.25;;;8.05;100.00
60852;BME280;48553;50.766;2.900;2024-01-30T00:48:37;101804.19;;;8.05;100.00
60852;BME280;48553;50.766;2.900;2024-01-30T00:51:37;101798.72;;;8.05;100.00
60852;BME280;48553;50.766;2.900;2024-01-30T00:54:37;101804.72;;;8.07;100.00
60852;BME280;48553;50.766;2.900;2024-01-30T00:57:38;101799.25;;;8.07;100.00
60852;BME280;48553;50.766;2.900;2024-01-30T01:00:39;101788.09;;;8.04;100.00
60852;BME280;48553;50.766;2.900;2024-01-30T01:03:40;101790.31;;;8.02;100.00
60852;BME280;48553;50.766;2.900;2024-01-30T01:06:43;101792.47;;;8.05;100.00
60852;BME280;48553;50.766;2.900;2024-01-30T01:09:44;101791.34;;;8.06;100.00
60852;BME280;48553;50.766;2.900;2024-01-30T01:12:45;101785.34;;;8.04;100.00
60852;BME280;48553;50.766;2.900;2024-01-30T01:15:46;101790.25;;;8.07;100.00
60852;BME280;48553;50.766;2.900;2024-01-30T01:18:46;101784.56;;;8.03;100.00
60852;BME280;48553;50.766;2.900;2024-01-30T01:21:46;101785.34;;;8.04;100.00
60852;BME280;48553;50.766;2.900;2024-01-30T01:24:47;101773.09;;;8.01;100.00
60852;BME280;48553;50.766;2.900;2024-01-30T01:27:47;101784.03;;;8.01;100.00
60852;BME280;48553;50.766;2.900;2024-01-30T01:30:51;101770.69;;;8.00;100.00
60852;BME280;48553;50.766;2.900;2024-01-30T01:33:52;101758.44;;;7.97;100.00
60852;BME280;48553;50.766;2.900;2024-01-30T01:36:53;101760.06;;;7.98;100.00
60852;BME280;48553;50.766;2.900;2024-01-30T01:39:55;101756.00;;;7.95;100.00
60852;BME280;48553;50.766;2.900;2024-01-30T01:42:56;101753.56;;;7.94;100.00
60852;BME280;48553;50.766;2.900;2024-01-30T01:45:56;101765.00;;;7.96;100.00
60852;BME280;48553;50.766;2.900;2024-01-30T01:48:56;101764.72;;;7.98;100.00
60852;BME280;48553;50.766;2.900;2024-01-30T01:51:58;101767.44;;;7.98;100.00
60852;BME280;48553;50.766;2.900;2024-01-30T01:54:59;101770.97;;;7.98;100.00
60852;BME280;48553;50.766;2.900;2024-01-30T01:57:59;101764.19;;;7.95;100.00
60852;BME280;48553;50.766;2.900;2024-01-30T02:01:00;101770.47;;;7.96;100.00
60852;BME280;48553;50.766;2.900;2024-01-30T02:04:00;101766.69;;;7.92;100.00
60852;BME280;48553;50.766;2.900;2024-01-30T02:07:01;101767.72;;;7.96;100.00
60852;BME280;48553;50.766;2.900;2024-01-30T02:10:01;101763.91;;;7.97;100.00
60852;BME280;48553;50.766;2.900;2024-01-30T02:13:03;101765.50;;;7.98;100.00
60852;BME280;48553;50.766;2.900;2024-01-30T02:16:05;101757.31;;;7.98;100.00
60852;BME280;48553;50.766;2.900;2024-01-30T02:19:05;101758.94;;;7.99;100.00
60852;BME280;48553;50.766;2.900;2024-01-30T02:22:08;101761.38;;;8.01;100.00
60852;BME280;48553;50.766;2.900;2024-01-30T02:25:09;101753.47;;;7.99;100.00
60852;BME280;48553;50.766;2.900;2024-01-30T02:28:12;101763.31;;;8.00;100.00
60852;BME280;48553;50.766;2.900;2024-01-30T02:31:13;101767.38;;;8.03;100.00
60852;BME280;48553;50.766;2.900;2024-01-30T02:34:13;101751.59;;;8.00;100.00
60852;BME280;48553;50.766;2.900;2024-01-30T02:37:14;101752.66;;;7.99;100.00
60852;BME280;48553;50.766;2.900;2024-01-30T02:40:15;101749.38;;;8.02;100.00
60852;BME280;48553;50.766;2.900;2024-01-30T02:43:15;101755.66;;;8.02;100.00
60852;BME280;48553;50.766;2.900;2024-01-30T02:46:16;101759.78;;;8.00;100.00
60852;BME280;48553;50.766;2.900;2024-01-30T02:49:16;101756.22;;;7.99;100.00
60852;BME280;48553;50.766;2.900;2024-01-30T02:52:17;101754.31;;;8.00;100.00
60852;BME280;48553;50.766;2.900;2024-01-30T02:55:17;101747.00;;;7.95;100.00
60852;BME280;48553;50.766;2.900;2024-01-30T02:58:18;101747.00;;;7.95;100.00
60852;BME280;48553;50.766;2.900;2024-01-30T03:01:19;101753.56;;;7.94;100.00
60852;BME280;48553;50.766;2.900;2024-01-30T03:04:19;101747.28;;;7.93;100.00
60852;BME280;48553;50.766;2.900;2024-01-30T03:07:20;101755.47;;;7.93;100.00
60852;BME280;48553;50.766;2.900;2024-01-30T03:10:20;101750.63;;;7.90;100.00
60852;BME280;48553;50.766;2.900;2024-01-30T03:13:21;101757.41;;;7.93;100.00
60852;BME280;48553;50.766;2.900;2024-01-30T03:16:23;101755.75;;;7.92;100.00
60852;BME280;48553;50.766;2.900;2024-01-30T03:19:24;101750.63;;;7.90;100.00
60852;BME280;48553;50.766;2.900;2024-01-30T03:22:24;101737.53;;;7.87;100.00
60852;BME280;48553;50.766;2.900;2024-01-30T03:25:24;101745.19;;;7.85;100.00
60852;BME280;48553;50.766;2.900;2024-01-30T03:28:25;101726.94;;;7.86;100.00
60852;BME280;48553;50.766;2.900;2024-01-30T03:31:26;101734.00;;;7.87;100.00
60852;BME280;48553;50.766;2.900;2024-01-30T03:34:26;101727.50;;;7.83;100.00
60852;BME280;48553;50.766;2.900;2024-01-30T03:37:27;101723.69;;;7.84;100.00
60852;BME280;48553;50.766;2.900;2024-01-30T03:40:27;101713.84;;;7.83;100.00
60852;BME280;48553;50.766;2.900;2024-01-30T03:43:28;101706.47;;;7.83;100.00
60852;BME280;48553;50.766;2.900;2024-01-30T03:46:28;101703.53;;;7.80;100.00
60852;BME280;48553;50.766;2.900;2024-01-30T03:49:29;101710.31;;;7.82;100.00
60852;BME280;48553;50.766;2.900;2024-01-30T03:52:29;101711.44;;;7.81;100.00
60852;BME280;48553;50.766;2.900;2024-01-30T03:55:29;101708.41;;;7.83;100.00
60852;BME280;48553;50.766;2.900;2024-01-30T03:58:30;101700.53;;;7.81;100.00
60852;BME280;48553;50.766;2.900;2024-01-30T04:01:30;101703.25;;;7.81;100.00
60852;BME280;48553;50.766;2.900;2024-01-30T04:04:31;101703.53;;;7.80;100.00
60852;BME280;48553;50.766;2.900;2024-01-30T04:07:31;101694.22;;;7.81;100.00
60852;BME280;48553;50.766;2.900;2024-01-30T04:10:32;101702.72;;;7.79;100.00
60852;BME280;48553;50.766;2.900;2024-01-30T04:13:33;101710.91;;;7.79;100.00
60852;BME280;48553;50.766;2.900;2024-01-30T04:16:33;101695.88;;;7.82;100.00
60852;BME280;48553;50.766;2.900;2024-01-30T04:19:37;101702.94;;;7.83;100.00
60852;BME280;48553;50.766;2.900;2024-01-30T04:22:37;101697.47;;;7.83;100.00
60852;BME280;48553;50.766;2.900;2024-01-30T04:25:38;101698.88;;;7.80;100.00
60852;BME280;48553;50.766;2.900;2024-01-30T04:28:38;101693.41;;;7.80;100.00
60852;BME280;48553;50.766;2.900;2024-01-30T04:31:38;101694.75;;;7.83;100.00
60852;BME280;48553;50.766;2.900;2024-01-30T04:34:39;101695.88;;;7.82;100.00
60852;BME280;48553;50.766;2.900;2024-01-30T04:37:39;101688.50;;;7.82;100.00
60852;BME280;48553;50.766;2.900;2024-01-30T04:40:40;101691.22;;;7.82;100.00
60852;BME280;48553;50.766;2.900;2024-01-30T04:43:40;101688.78;;;7.81;100.00
60852;BME280;48553;50.766;2.900;2024-01-30T04:46:41;101692.63;;;7.80;100.00
60852;BME280;48553;50.766;2.900;2024-01-30T04:49:41;101693.72;;;7.79;100.00
60852;BME280;48553;50.766;2.900;2024-01-30T04:52:42;101705.16;;;7.81;100.00
60852;BME280;48553;50.766;2.900;2024-01-30T04:55:42;101712.53;;;7.80;100.00
60852;BME280;48553;50.766;2.900;2024-01-30T04:58:43;101711.13;;;7.83;100.00
60852;BME280;48553;50.766;2.900;2024-01-30T05:01:43;101725.28;;;7.85;100.00
60852;BME280;48553;50.766;2.900;2024-01-30T05:04:44;101725.00;;;7.86;100.00
60852;BME280;48553;50.766;2.900;2024-01-30T05:07:44;101728.03;;;7.85;100.00
60852;BME280;48553;50.766;2.900;2024-01-30T05:10:45;101729.06;;;7.89;100.00
60852;BME280;48553;50.766;2.900;2024-01-30T05:13:46;101726.84;;;7.91;100.00
60852;BME280;48553;50.766;2.900;2024-01-30T05:16:46;101725.22;;;7.90;100.00
60852;BME280;48553;50.766;2.900;2024-01-30T05:19:47;101723.00;;;7.92;100.00
60852;BME280;48553;50.766;2.900;2024-01-30T05:22:48;101723.53;;;7.94;100.00
60852;BME280;48553;50.766;2.900;2024-01-30T05:25:48;101730.63;;;7.95;100.00
60852;BME280;48553;50.766;2.900;2024-01-30T05:28:48;101734.69;;;7.98;100.00
60852;BME280;48553;50.766;2.900;2024-01-30T05:31:49;101741.47;;;8.00;100.00
60852;BME280;48553;50.766;2.900;2024-01-30T05:34:49;101748.53;;;8.01;100.00
60852;BME280;48553;50.766;2.900;2024-01-30T05:37:50;101751.00;;;8.03;100.00
60852;BME280;48553;50.766;2.900;2024-01-30T05:40:51;101751.78;;;8.03;100.00
60852;BME280;48553;50.766;2.900;2024-01-30T05:43:51;101765.44;;;8.03;100.00
60852;BME280;48553;50.766;2.900;2024-01-30T05:46:52;101760.50;;;8.05;100.00
60852;BME280;48553;50.766;2.900;2024-01-30T05:49:52;101754.75;;;8.07;100.00
60852;BME280;48553;50.766;2.900;2024-01-30T05:52:53;101756.09;;;8.09;100.00
60852;BME280;48553;50.766;2.900;2024-01-30T05:55:53;101751.44;;;8.10;100.00
60852;BME280;48553;50.766;2.900;2024-01-30T05:58:53;101754.69;;;8.12;100.00
60852;BME280;48553;50.766;2.900;2024-01-30T06:01:54;101743.75;;;8.12;100.00
60852;BME280;48553;50.766;2.900;2024-01-30T06:04:54;101756.91;;;8.10;100.00
60852;BME280;48553;50.766;2.900;2024-01-30T06:07:55;101761.25;;;8.11;100.00
60852;BME280;48553;50.766;2.900;2024-01-30T06:10:55;101768.63;;;8.10;100.00
60852;BME280;48553;50.766;2.900;2024-01-30T06:13:56;101774.06;;;8.10;100.00
60852;BME280;48553;50.766;2.900;2024-01-30T06:16:56;101775.72;;;8.11;100.00
60852;BME280;48553;50.766;2.900;2024-01-30T06:19:56;101784.72;;;8.12;100.00
60852;BME280;48553;50.766;2.900;2024-01-30T06:22:57;101781.97;;;8.12;100.00
60852;BME280;48553;50.766;2.900;2024-01-30T06:25:57;101789.09;;;8.13;100.00
60852;BME280;48553;50.766;2.900;2024-01-30T06:28:58;101793.44;;;8.14;100.00
60852;BME280;48553;50.766;2.900;2024-01-30T06:31:58;101791.50;;;8.14;100.00
60852;BME280;48553;50.766;2.900;2024-01-30T06:34:58;101802.16;;;8.16;100.00
60852;BME280;48553;50.766;2.900;2024-01-30T06:37:59;101804.59;;;8.18;100.00
60852;BME280;48553;50.766;2.900;2024-01-30T06:40:59;101802.16;;;8.16;100.00
60852;BME280;48553;50.766;2.900;2024-01-30T06:44:02;101813.34;;;8.14;100.00
60852;BME280;48553;50.766;2.900;2024-01-30T06:47:03;101802.16;;;8.16;100.00
60852;BME280;48553;50.766;2.900;2024-01-30T06:50:04;101807.31;;;8.18;100.00
60852;BME280;48553;50.766;2.900;2024-01-30T06:53:04;101819.06;;;8.18;100.00
60852;BME280;48553;50.766;2.900;2024-01-30T06:56:05;101819.84;;;8.19;100.00
60852;BME280;48553;50.766;2.900;2024-01-30T06:59:06;101819.06;;;8.18;100.00
60852;BME280;48553;50.766;2.900;2024-01-30T07:02:06;101822.31;;;8.20;100.00
60852;BME280;48553;50.766;2.900;2024-01-30T07:05:09;101823.41;;;8.19;100.00
60852;BME280;48553;50.766;2.900;2024-01-30T07:08:10;101829.97;;;8.18;100.00
60852;BME280;48553;50.766;2.900;2024-01-30T07:11:10;101832.69;;;8.18;100.00
60852;BME280;48553;50.766;2.900;2024-01-30T07:14:12;101851.28;;;8.16;100.00
60852;BME280;48553;50.766;2.900;2024-01-30T07:17:12;101846.34;;;8.18;100.00
60852;BME280;48553;50.766;2.900;2024-01-30T07:20:13;101858.31;;;8.22;100.00
60852;BME280;48553;50.766;2.900;2024-01-30T07:23:14;101856.41;;;8.23;100.00
60852;BME280;48553;50.766;2.900;2024-01-30T07:26:16;101858.53;;;8.26;100.00
60852;BME280;48553;50.766;2.900;2024-01-30T07:29:17;101863.47;;;8.24;100.00
60852;BME280;48553;50.766;2.900;2024-01-30T07:32:17;101851.16;;;8.26;100.00
60852;BME280;48553;50.766;2.900;2024-01-30T07:35:19;101863.13;;;8.30;100.00
60852;BME280;48553;50.766;2.900;2024-01-30T07:38:19;101854.13;;;8.30;100.00
60852;BME280;48553;50.766;2.900;2024-01-30T07:41:20;101868.06;;;8.28;100.00
60852;BME280;48553;50.766;2.900;2024-01-30T07:44:20;101868.88;;;8.29;100.00
60852;BME280;48553;50.766;2.900;2024-01-30T07:47:21;101876.78;;;8.30;100.00
60852;BME280;48553;50.766;2.900;2024-01-30T07:50:21;101883.34;;;8.29;100.00
60852;BME280;48553;50.766;2.900;2024-01-30T07:53:22;101877.59;;;8.31;100.00
60852;BME280;48553;50.766;2.900;2024-01-30T07:56:22;101900.28;;;8.31;100.00
60852;BME280;48553;50.766;2.900;2024-01-30T07:59:23;101907.34;;;8.32;100.00
60852;BME280;48553;50.766;2.900;2024-01-30T08:02:25;101906.53;;;8.32;100.00
60852;BME280;48553;50.766;2.900;2024-01-30T08:05:25;101914.44;;;8.33;100.00
60852;BME280;48553;50.766;2.900;2024-01-30T08:08:25;101922.94;;;8.32;100.00
60852;BME280;48553;50.766;2.900;2024-01-30T08:11:27;101927.28;;;8.33;100.00
60852;BME280;48553;50.766;2.900;2024-01-30T08:14:29;101934.94;;;8.31;100.00
60852;BME280;48553;50.766;2.900;2024-01-30T08:17:30;101931.94;;;8.32;100.00
60852;BME280;48553;50.766;2.900;2024-01-30T08:20:30;101937.38;;;8.32;100.00
60852;BME280;48553;50.766;2.900;2024-01-30T08:23:31;101948.31;;;8.32;100.00
60852;BME280;48553;50.766;2.900;2024-01-30T08:26:32;101950.25;;;8.32;100.00
60852;BME280;48553;50.766;2.900;2024-01-30T08:29:32;101946.97;;;8.30;100.00
60852;BME280;48553;50.766;2.900;2024-01-30T08:32:33;101964.19;;;8.30;100.00
60852;BME280;48553;50.766;2.900;2024-01-30T08:35:33;101961.44;;;8.30;100.00
60852;BME280;48553;50.766;2.900;2024-01-30T08:38:34;101954.38;;;8.29;100.00
60852;BME280;48553;50.766;2.900;2024-01-30T08:41:34;101956.84;;;8.26;100.00
60852;BME280;48553;50.766;2.900;2024-01-30T08:44:35;101965.84;;;8.26;100.00
60852;BME280;48553;50.766;2.900;2024-01-30T08:47:35;101970.50;;;8.26;100.00
60852;BME280;48553;50.766;2.900;2024-01-30T08:50:35;101982.56;;;8.25;100.00
60852;BME280;48553;50.766;2.900;2024-01-30T08:53:36;101981.97;;;8.28;100.00
60852;BME280;48553;50.766;2.900;2024-01-30T08:56:36;101991.56;;;8.25;100.00
60852;BME280;48553;50.766;2.900;2024-01-30T08:59:37;101991.28;;;8.27;100.00
60852;BME280;48553;50.766;2.900;2024-01-30T09:02:37;101980.03;;;8.28;100.00
60852;BME280;48553;50.766;2.900;2024-01-30T09:05:38;101992.28;;;8.31;100.00
60852;BME280;48553;50.766;2.900;2024-01-30T09:08:38;102003.53;;;8.29;100.00
60852;BME280;48553;50.766;2.900;2024-01-30T09:11:39;101999.75;;;8.25;100.00
60852;BME280;48553;50.766;2.900;2024-01-30T09:14:40;101989.91;;;8.24;100.00
60852;BME280;48553;50.766;2.900;2024-01-30T09:17:41;101989.63;;;8.26;100.00
60852;BME280;48553;50.766;2.900;2024-01-30T09:20:41;101990.75;;;8.25;100.00
60852;BME280;48553;50.766;2.900;2024-01-30T09:23:42;101995.63;;;8.28;100.00
60852;BME280;48553;50.766;2.900;2024-01-30T09:26:42;102007.88;;;8.30;100.00
60852;BME280;48553;50.766;2.900;2024-01-30T09:29:42;102005.69;;;8.32;100.00
60852;BME280;48553;50.766;2.900;2024-01-30T09:32:43;101992.25;;;8.36;100.00
60852;BME280;48553;50.766;2.900;2024-01-30T09:35:43;102001.41;;;8.50;100.00
60852;BME280;48553;50.766;2.900;2024-01-30T09:38:44;102022.78;;;8.67;100.00
60852;BME280;48553;50.766;2.900;2024-01-30T09:45:07;102022.59;;;8.64;100.00
60852;BME280;48553;50.766;2.900;2024-01-30T09:48:09;102021.78;;;8.63;100.00
60852;BME280;48553;50.766;2.900;2024-01-30T09:51:11;102021.25;;;8.61;100.00
60852;BME280;48553;50.766;2.900;2024-01-30T09:54:14;102038.16;;;8.63;100.00
60852;BME280;48553;50.766;2.900;2024-01-30T09:57:15;102038.91;;;8.69;100.00
60852;BME280;48553;50.766;2.900;2024-01-30T10:00:16;102027.75;;;9.08;100.00
60852;BME280;48553;50.766;2.900;2024-01-30T10:03:16;102028.97;;;9.59;100.00
60852;BME280;48553;50.766;2.900;2024-01-30T10:06:18;102038.34;;;10.04;100.00
60852;BME280;48553;50.766;2.900;2024-01-30T10:09:21;102042.94;;;10.09;100.00
60852;BME280;48553;50.766;2.900;2024-01-30T10:12:22;102058.38;;;9.67;100.00
60852;BME280;48553;50.766;2.900;2024-01-30T10:15:24;102053.53;;;9.45;100.00
60852;BME280;48553;50.766;2.900;2024-01-30T10:18:25;102056.72;;;9.33;100.00
60852;BME280;48553;50.766;2.900;2024-01-30T10:21:26;102064.97;;;9.28;100.00
60852;BME280;48553;50.766;2.900;2024-01-30T10:24:26;102071.03;;;9.25;100.00
60852;BME280;48553;50.766;2.900;2024-01-30T10:27:28;102061.25;;;9.19;100.00
60852;BME280;48553;50.766;2.900;2024-01-30T10:30:29;102065.16;;;9.13;100.00
60852;BME280;48553;50.766;2.900;2024-01-30T10:33:30;102064.06;;;9.14;100.00
60852;BME280;48553;50.766;2.900;2024-01-30T10:36:39;102079.69;;;9.32;100.00
60852;BME280;48553;50.766;2.900;2024-01-30T10:39:42;102079.25;;;9.44;100.00
60852;BME280;48553;50.766;2.900;2024-01-30T10:42:44;102088.78;;;9.47;100.00
60852;BME280;48553;50.766;2.900;2024-01-30T10:45:49;102071.84;;;9.45;100.00
60852;BME280;48553;50.766;2.900;2024-01-30T10:48:59;102085.84;;;9.43;100.00
60852;BME280;48553;50.766;2.900;2024-01-30T10:52:01;102088.13;;;9.36;100.00
60852;BME280;48553;50.766;2.900;2024-01-30T10:55:03;102094.78;;;9.30;100.00
60852;BME280;48553;50.766;2.900;2024-01-30T10:58:06;102099.19;;;9.26;100.00
60852;BME280;48553;50.766;2.900;2024-01-30T11:01:07;102106.66;;;9.20;100.00
60852;BME280;48553;50.766;2.900;2024-01-30T11:04:10;102100.94;;;9.16;100.00
60852;BME280;48553;50.766;2.900;2024-01-30T11:07:17;102098.81;;;9.13;100.00
60852;BME280;48553;50.766;2.900;2024-01-30T11:10:18;102098.56;;;9.10;100.00
60852;BME280;48553;50.766;2.900;2024-01-30T11:13:19;102103.50;;;9.08;100.00
60852;BME280;48553;50.766;2.900;2024-01-30T11:16:20;102099.44;;;9.05;100.00
60852;BME280;48553;50.766;2.900;2024-01-30T11:19:30;102104.91;;;9.05;100.00
60852;BME280;48553;50.766;2.900;2024-01-30T11:22:31;102117.78;;;9.05;100.00
60852;BME280;48553;50.766;2.900;2024-01-30T11:25:32;102121.31;;;9.05;100.00
60852;BME280;48553;50.766;2.900;2024-01-30T11:28:33;102118.00;;;9.08;100.00
60852;BME280;48553;50.766;2.900;2024-01-30T11:31:36;102116.38;;;9.07;100.00
60852;BME280;48553;50.766;2.900;2024-01-30T11:34:40;102121.31;;;9.05;100.00
60852;BME280;48553;50.766;2.900;2024-01-30T11:37:41;102113.13;;;9.05;100.00
60852;BME280;48553;50.766;2.900;2024-01-30T11:40:43;102116.41;;;9.26;100.00
60852;BME280;48553;50.766;2.900;2024-01-30T11:43:52;102108.69;;;9.33;100.00
60852;BME280;48553;50.766;2.900;2024-01-30T11:46:52;102106.81;;;9.29;100.00
60852;BME280;48553;50.766;2.900;2024-01-30T11:49:53;102123.81;;;9.26;100.00
60852;BME280;48553;50.766;2.900;2024-01-30T11:52:54;102121.38;;;9.24;100.00
60852;BME280;48553;50.766;2.900;2024-01-30T11:55:54;102130.97;;;9.22;100.00
60852;BME280;48553;50.766;2.900;2024-01-30T11:58:55;102133.19;;;9.19;100.00
60852;BME280;48553;50.766;2.900;2024-01-30T12:01:55;102135.41;;;9.17;100.00
60852;BME280;48553;50.766;2.900;2024-01-30T12:04:56;102149.66;;;9.14;100.00
60852;BME280;48553;50.766;2.900;2024-01-30T12:07:56;102143.63;;;9.17;100.00
60852;BME280;48553;50.766;2.900;2024-01-30T12:11:00;102144.72;;;9.16;100.00
60852;BME280;48553;50.766;2.900;2024-01-30T12:14:05;102142.84;;;9.12;100.00
60852;BME280;48553;50.766;2.900;2024-01-30T12:17:05;102141.47;;;9.14;100.00
60852;BME280;48553;50.766;2.900;2024-01-30T12:20:10;102147.16;;;9.18;100.00
60852;BME280;48553;50.766;2.900;2024-01-30T12:23:14;102147.03;;;9.28;100.00
60852;BME280;48553;50.766;2.900;2024-01-30T12:26:14;102146.28;;;9.23;100.00
60852;BME280;48553;50.766;2.900;2024-01-30T12:29:15;102144.13;;;9.19;100.00
60852;BME280;48553;50.766;2.900;2024-01-30T12:32:16;102149.38;;;9.16;100.00
60852;BME280;48553;50.766;2.900;2024-01-30T12:35:18;102159.28;;;9.12;100.00
60852;BME280;48553;50.766;2.900;2024-01-30T12:38:19;102162.81;;;9.12;100.00
60852;BME280;48553;50.766;2.900;2024-01-30T12:41:20;102162.59;;;9.09;100.00
60852;BME280;48553;50.766;2.900;2024-01-30T12:44:20;102166.19;;;9.04;100.00
60852;BME280;48553;50.766;2.900;2024-01-30T12:47:24;102156.66;;;9.02;100.00
60852;BME280;48553;50.766;2.900;2024-01-30T12:50:24;102172.81;;;8.98;100.00
60852;BME280;48553;50.766;2.900;2024-01-30T12:53:24;102173.94;;;8.97;100.00
60852;BME280;48553;50.766;2.900;2024-01-30T12:56:25;102173.94;;;8.97;100.00
60852;BME280;48553;50.766;2.900;2024-01-30T12:59:25;102164.69;;;8.93;100.00
60852;BME280;48553;50.766;2.900;2024-01-30T13:02:26;102176.94;;;8.95;100.00
60852;BME280;48553;50.766;2.900;2024-01-30T13:05:30;102174.22;;;8.95;100.00
60852;BME280;48553;50.766;2.900;2024-01-30T13:08:31;102174.50;;;8.94;100.00
60852;BME280;48553;50.766;2.900;2024-01-30T13:11:31;102172.03;;;8.92;100.00
60852;BME280;48553;50.766;2.900;2024-01-30T13:14:32;102173.69;;;8.93;100.00
60852;BME280;48553;50.766;2.900;2024-01-30T13:17:32;102181.91;;;8.93;100.00
60852;BME280;48553;50.766;2.900;2024-01-30T13:20:33;102177.00;;;8.90;100.00
60852;BME280;48553;50.766;2.900;2024-01-30T13:23:33;102180.56;;;8.91;100.00
60852;BME280;48553;50.766;2.900;2024-01-30T13:26:34;102184.38;;;8.90;100.00
60852;BME280;48553;50.766;2.900;2024-01-30T13:29:34;102181.97;;;8.83;100.00
60852;BME280;48553;50.766;2.900;2024-01-30T13:32:35;102192.69;;;8.80;100.00
60852;BME280;48553;50.766;2.900;2024-01-30T13:35:36;102192.41;;;8.81;100.00
60852;BME280;48553;50.766;2.900;2024-01-30T13:38:36;102204.97;;;8.82;100.00
60852;BME280;48553;50.766;2.900;2024-01-30T13:41:37;102207.44;;;8.84;100.00
60852;BME280;48553;50.766;2.900;2024-01-30T13:44:38;102212.88;;;8.84;100.00
60852;BME280;48553;50.766;2.900;2024-01-30T13:47:39;102208.81;;;8.81;100.00
60852;BME280;48553;50.766;2.900;2024-01-30T13:50:39;102206.63;;;8.78;100.00
60852;BME280;48553;50.766;2.900;2024-01-30T13:53:40;102200.91;;;8.80;100.00
60852;BME280;48553;50.766;2.900;2024-01-30T13:56:40;102208.28;;;8.79;100.00
60852;BME280;48553;50.766;2.900;2024-01-30T13:59:41;102212.38;;;8.76;100.00
60852;BME280;48553;50.766;2.900;2024-01-30T14:02:42;102211.88;;;8.74;100.00
60852;BME280;48553;50.766;2.900;2024-01-30T14:05:43;102217.63;;;8.73;100.00
60852;BME280;48553;50.766;2.900;2024-01-30T14:08:44;102229.38;;;8.73;100.00
60852;BME280;48553;50.766;2.900;2024-01-30T14:11:44;102236.22;;;8.71;100.00
60852;BME280;48553;50.766;2.900;2024-01-30T14:14:45;102239.78;;;8.71;100.00
60852;BME280;48553;50.766;2.900;2024-01-30T14:17:45;102229.69;;;8.67;100.00
60852;BME280;48553;50.766;2.900;2024-01-30T14:20:48;102235.47;;;8.65;100.00
60852;BME280;48553;50.766;2.900;2024-01-30T14:23:49;102242.06;;;8.59;100.00
60852;BME280;48553;50.766;2.900;2024-01-30T14:26:49;102222.13;;;8.59;100.00
60852;BME280;48553;50.766;2.900;2024-01-30T14:29:50;102239.34;;;8.59;100.00
60852;BME280;48553;50.766;2.900;2024-01-30T14:32:51;102242.13;;;8.54;100.00
60852;BME280;48553;50.766;2.900;2024-01-30T14:35:51;102253.56;;;8.56;100.00
60852;BME280;48553;50.766;2.900;2024-01-30T14:38:52;102257.41;;;8.55;100.00
60852;BME280;48553;50.766;2.900;2024-01-30T14:41:52;102270.25;;;8.54;100.00
60852;BME280;48553;50.766;2.900;2024-01-30T14:44:52;102266.72;;;8.54;100.00
60852;BME280;48553;50.766;2.900;2024-01-30T14:47:53;102271.06;;;8.55;100.00
60852;BME280;48553;50.766;2.900;2024-01-30T14:50:56;102289.66;;;8.53;100.00
60852;BME280;48553;50.766;2.900;2024-01-30T14:53:56;102285.31;;;8.52;100.00
60852;BME280;48553;50.766;2.900;2024-01-30T14:56:57;102291.63;;;8.47;100.00
60852;BME280;48553;50.766;2.900;2024-01-30T14:59:59;102289.72;;;8.43;100.00
60852;BME280;48553;50.766;2.900;2024-01-30T15:03:00;102297.94;;;8.43;100.00
60852;BME280;48553;50.766;2.900;2024-01-30T15:06:00;102297.63;;;8.44;100.00
60852;BME280;48553;50.766;2.900;2024-01-30T15:09:01;102298.44;;;8.45;100.00
60852;BME280;48553;50.766;2.900;2024-01-30T15:12:01;102305.00;;;8.44;100.00
60852;BME280;48553;50.766;2.900;2024-01-30T15:15:02;102303.41;;;8.43;100.00
60852;BME280;48553;50.766;2.900;2024-01-30T15:18:03;102306.41;;;8.41;100.00
60852;BME280;48553;50.766;2.900;2024-01-30T15:21:04;102314.31;;;8.37;100.00
60852;BME280;48553;50.766;2.900;2024-01-30T15:24:05;102332.34;;;8.39;100.00
60852;BME280;48553;50.766;2.900;2024-01-30T15:27:05;102334.25;;;8.38;100.00
60852;BME280;48553;50.766;2.900;2024-01-30T15:30:06;102331.53;;;8.38;100.00
60852;BME280;48553;50.766;2.900;2024-01-30T15:33:07;102344.13;;;8.34;100.00
60852;BME280;48553;50.766;2.900;2024-01-30T15:36:10;102352.31;;;8.34;100.00
60852;BME280;48553;50.766;2.900;2024-01-30T15:39:14;102358.84;;;8.33;100.00
60852;BME280;48553;50.766;2.900;2024-01-30T15:42:15;102362.69;;;8.32;100.00
60852;BME280;48553;50.766;2.900;2024-01-30T15:45:15;102362.69;;;8.32;100.00
60852;BME280;48553;50.766;2.900;2024-01-30T15:48:18;102368.16;;;8.32;100.00